createdAt,value
2023-03-02T00:00:16.466Z,13.27
2023-03-02T00:02:45.177Z,10.75
2023-03-02T00:05:14.461Z,8.32
2023-03-02T00:07:42.319Z,13.35
2023-03-02T00:10:11.173Z,10.32
2023-03-02T00:12:40.315Z,11.20
2023-03-02T00:15:09.268Z,13.52
2023-03-02T00:17:37.284Z,11.77
2023-03-02T00:20:12.011Z,15.38
2023-03-02T00:22:40.388Z,12.38
2023-03-02T00:25:09.020Z,8.60
2023-03-02T00:27:36.748Z,8.90
2023-03-02T00:30:07.607Z,12.30
2023-03-02T00:32:35.743Z,13.13
2023-03-02T00:35:03.572Z,10.45
2023-03-02T00:37:31.438Z,12.98
2023-03-02T00:39:59.201Z,12.48
2023-03-02T00:42:26.938Z,9.90
2023-03-02T00:44:54.828Z,9.57
2023-03-02T00:47:23.892Z,10.48
2023-03-02T00:49:51.611Z,12.52
2023-03-02T00:52:19.373Z,10.73
2023-03-02T00:54:47.130Z,10.50
2023-03-02T00:57:14.901Z,7.35
2023-03-02T00:59:42.821Z,9.30
2023-03-02T01:02:10.633Z,8.05
2023-03-02T01:04:41.452Z,12.18
2023-03-02T01:07:12.136Z,8.98
2023-03-02T01:09:41.435Z,8.10
2023-03-02T01:12:11.267Z,10.15
2023-03-02T01:14:40.497Z,13.82
2023-03-02T01:17:09.388Z,9.95
2023-03-02T01:19:39.040Z,13.52
2023-03-02T01:22:07.436Z,11.70
2023-03-02T01:24:35.303Z,8.13
2023-03-02T01:27:03.086Z,9.15
2023-03-02T01:29:30.914Z,13.95
2023-03-02T01:31:58.888Z,12.27
2023-03-02T01:34:28.111Z,12.48
2023-03-02T01:36:57.587Z,7.80
2023-03-02T01:39:25.379Z,8.13
2023-03-02T01:41:54.485Z,11.20
2023-03-02T01:44:41.612Z,12.40
2023-03-02T01:47:16.355Z,11.40
2023-03-02T01:49:49.258Z,12.25
2023-03-02T01:52:18.981Z,9.20
2023-03-02T01:54:49.737Z,12.73
2023-03-02T01:57:22.270Z,11.25
2023-03-02T01:59:53.563Z,7.53
2023-03-02T02:02:21.625Z,15.57
2023-03-02T02:04:50.976Z,16.65
2023-03-02T02:07:20.120Z,10.02
2023-03-02T02:09:50.937Z,14.02
2023-03-02T02:12:20.800Z,12.20
2023-03-02T02:14:49.564Z,9.18
2023-03-02T02:17:18.719Z,10.00
2023-03-02T02:19:57.056Z,8.30
2023-03-02T02:22:39.364Z,22.35
2023-03-02T02:25:18.365Z,11.60
2023-03-02T02:27:47.840Z,15.95
2023-03-02T02:30:17.337Z,11.65
2023-03-02T02:32:48.272Z,8.55
2023-03-02T02:35:19.778Z,16.40
2023-03-02T02:37:51.550Z,27.50
2023-03-02T02:40:23.272Z,7.95
2023-03-02T02:42:54.235Z,11.93
2023-03-02T02:45:25.247Z,11.93
2023-03-02T02:47:54.873Z,11.82
2023-03-02T02:50:27.053Z,15.20
2023-03-02T02:53:00.622Z,10.38
2023-03-02T02:58:00.025Z,12.57
2023-03-02T03:00:28.468Z,18.25
2023-03-02T03:03:02.968Z,11.70
2023-03-02T03:05:30.773Z,7.32
2023-03-02T03:08:08.496Z,13.55
2023-03-02T03:10:40.404Z,11.55
2023-03-02T03:13:11.458Z,16.17
2023-03-02T03:15:39.610Z,10.15
2023-03-02T03:18:07.368Z,8.13
2023-03-02T03:20:35.293Z,11.93
2023-03-02T03:23:03.037Z,19.08
2023-03-02T03:25:32.075Z,14.25
2023-03-02T03:27:59.903Z,11.82
2023-03-02T03:30:29.000Z,22.52
2023-03-02T03:32:56.695Z,10.60
2023-03-02T03:35:24.526Z,9.63
2023-03-02T03:37:52.315Z,8.10
2023-03-02T03:40:20.357Z,13.63
2023-03-02T03:42:48.399Z,11.15
2023-03-02T03:45:16.170Z,11.32
2023-03-02T03:47:45.235Z,11.30
2023-03-02T03:50:13.048Z,11.07
2023-03-02T03:52:40.786Z,11.30
2023-03-02T03:55:09.526Z,12.98
2023-03-02T03:57:37.243Z,11.77
2023-03-02T04:00:08.986Z,7.35
2023-03-02T04:02:36.736Z,9.60
2023-03-02T04:05:07.171Z,12.63
2023-03-02T04:07:35.480Z,9.98
2023-03-02T04:10:04.431Z,10.65
2023-03-02T04:12:32.851Z,9.77
2023-03-02T04:15:00.591Z,8.07
2023-03-02T04:17:28.479Z,14.15
2023-03-02T04:19:56.760Z,8.90
2023-03-02T04:22:26.153Z,10.23
2023-03-02T04:24:54.136Z,9.70
2023-03-02T04:27:21.853Z,12.57
2023-03-02T04:29:52.885Z,8.20
2023-03-02T04:32:21.239Z,10.82
2023-03-02T04:34:48.991Z,10.50
2023-03-02T04:37:16.716Z,14.88
2023-03-02T04:39:50.152Z,10.98
2023-03-02T04:42:18.133Z,11.48
2023-03-02T04:44:45.842Z,12.75
2023-03-02T04:47:13.593Z,12.07
2023-03-02T04:49:41.790Z,8.73
2023-03-02T04:52:09.494Z,9.32
2023-03-02T04:54:37.324Z,12.52
2023-03-02T04:57:08.376Z,11.82
2023-03-02T04:59:36.161Z,13.18
2023-03-02T05:02:04.173Z,11.20
2023-03-02T05:04:32.856Z,11.20
2023-03-02T05:07:00.988Z,9.73
2023-03-02T05:09:30.862Z,7.45
2023-03-02T05:12:01.118Z,11.77
2023-03-02T05:14:30.905Z,12.50
2023-03-02T05:16:58.907Z,14.48
2023-03-02T05:19:26.750Z,14.82
2023-03-02T05:21:54.555Z,12.85
2023-03-02T05:24:22.337Z,13.02
2023-03-02T05:26:50.087Z,13.10
2023-03-02T05:29:17.813Z,12.45
2023-03-02T05:31:47.877Z,11.95
2023-03-02T05:34:17.186Z,13.00
2023-03-02T05:36:46.108Z,12.13
2023-03-02T05:39:14.110Z,24.63
2023-03-02T05:41:42.345Z,14.40
2023-03-02T05:44:12.016Z,13.52
2023-03-02T05:46:40.206Z,15.63
2023-03-02T05:49:10.568Z,13.63
2023-03-02T05:51:38.272Z,12.95
2023-03-02T05:54:06.049Z,15.48
2023-03-02T05:56:34.089Z,11.88
2023-03-02T05:59:02.039Z,17.15
2023-03-02T06:01:29.763Z,11.30
2023-03-02T06:03:57.499Z,11.02
2023-03-02T06:06:26.690Z,11.50
2023-03-02T06:08:54.422Z,16.30
2023-03-02T06:11:22.151Z,13.52
2023-03-02T06:13:49.924Z,21.92
2023-03-02T06:16:17.754Z,13.98
2023-03-02T06:18:45.558Z,19.50
2023-03-02T06:21:13.428Z,17.75
2023-03-02T06:23:42.544Z,16.92
2023-03-02T06:26:11.379Z,14.98
2023-03-02T06:28:51.550Z,15.57
2023-03-02T06:31:20.875Z,15.63
2023-03-02T06:33:48.691Z,14.00
2023-03-02T06:36:17.169Z,16.95
2023-03-02T06:38:46.344Z,21.77
2023-03-02T06:41:14.127Z,24.50
2023-03-02T06:43:41.953Z,15.68
2023-03-02T06:46:09.837Z,16.20
2023-03-02T06:48:37.660Z,17.15
2023-03-02T06:51:07.628Z,23.67
2023-03-02T06:53:35.388Z,21.60
2023-03-02T06:56:05.069Z,19.63
2023-03-02T06:58:32.780Z,13.43
2023-03-02T07:01:00.634Z,15.82
2023-03-02T07:03:28.419Z,14.95
2023-03-02T07:05:56.249Z,20.85
2023-03-02T07:08:24.035Z,18.05
2023-03-02T07:10:51.817Z,15.98
2023-03-02T07:13:21.177Z,19.98
2023-03-02T07:15:48.976Z,18.25
2023-03-02T07:18:16.709Z,17.38
2023-03-02T07:20:44.436Z,18.63
2023-03-02T07:23:12.236Z,19.92
2023-03-02T07:25:40.016Z,13.98
2023-03-02T07:28:07.932Z,17.15
2023-03-02T07:30:37.066Z,17.73
2023-03-02T07:33:04.977Z,19.48
2023-03-02T07:35:32.728Z,24.90
2023-03-02T07:38:00.430Z,20.73
2023-03-02T07:40:28.219Z,18.08
2023-03-02T07:42:56.022Z,22.05
2023-03-02T07:45:24.956Z,23.67
2023-03-02T07:47:54.120Z,21.45
2023-03-02T07:50:21.862Z,19.40
2023-03-02T07:52:49.606Z,20.98
2023-03-02T07:55:17.508Z,19.58
2023-03-02T07:57:45.235Z,20.02
2023-03-02T08:00:14.424Z,20.77
2023-03-02T08:02:42.804Z,16.27
2023-03-02T08:05:12.962Z,20.95
2023-03-02T08:07:42.232Z,23.80
2023-03-02T08:10:11.526Z,26.98
2023-03-02T08:12:39.343Z,21.85
2023-03-02T08:15:08.277Z,23.40
2023-03-02T08:17:36.060Z,18.92
2023-03-02T08:20:05.409Z,21.45
2023-03-02T08:22:34.562Z,21.63
2023-03-02T08:25:02.278Z,20.30
2023-03-02T08:27:30.296Z,21.67
2023-03-02T08:29:58.015Z,23.75
2023-03-02T08:32:25.808Z,39.63
2023-03-02T08:34:53.774Z,28.10
2023-03-02T08:37:21.541Z,21.08
2023-03-02T08:39:51.709Z,35.47
2023-03-02T08:42:19.488Z,24.30
2023-03-02T08:44:47.236Z,18.30
2023-03-02T08:47:14.976Z,20.98
2023-03-02T08:49:42.789Z,19.48
2023-03-02T08:52:10.574Z,25.63
2023-03-02T08:54:40.576Z,21.80
2023-03-02T08:57:11.897Z,24.52
2023-03-02T08:59:39.722Z,19.02
2023-03-02T09:02:07.985Z,23.25
2023-03-02T09:04:35.829Z,21.80
2023-03-02T09:07:03.566Z,24.10
2023-03-02T09:09:31.275Z,22.42
2023-03-02T09:11:59.058Z,95.28
2023-03-02T09:14:28.339Z,179.15
2023-03-02T09:16:56.141Z,114.13
2023-03-02T09:19:24.171Z,53.20
2023-03-02T09:21:51.943Z,34.25
2023-03-02T09:24:19.683Z,27.52
2023-03-02T09:26:47.608Z,25.52
2023-03-02T09:29:15.375Z,27.50
2023-03-02T09:31:44.510Z,24.55
2023-03-02T09:34:12.265Z,22.98
2023-03-02T09:36:39.958Z,24.92
2023-03-02T09:39:12.279Z,21.90
2023-03-02T09:42:19.572Z,20.70
2023-03-02T09:45:12.286Z,22.20
2023-03-02T09:47:49.080Z,22.17
2023-03-02T09:50:30.406Z,28.30
2023-03-02T09:53:16.550Z,22.13
2023-03-02T09:55:46.060Z,21.27
2023-03-02T09:58:18.474Z,27.77
2023-03-02T10:00:47.622Z,25.88
2023-03-02T10:03:19.149Z,26.88
2023-03-02T10:05:48.960Z,27.15
2023-03-02T10:08:20.721Z,19.80
2023-03-02T10:10:57.911Z,22.98
2023-03-02T10:13:30.377Z,30.30
2023-03-02T10:16:11.680Z,22.88
2023-03-02T10:18:46.170Z,26.10
2023-03-02T10:21:21.553Z,24.35
2023-03-02T10:23:57.380Z,22.90
2023-03-02T10:26:36.937Z,30.67
2023-03-02T10:29:19.145Z,29.48
2023-03-02T10:31:49.808Z,32.72
2023-03-02T10:34:19.823Z,23.55
2023-03-02T10:36:48.233Z,24.02
2023-03-02T10:39:18.515Z,25.90
2023-03-02T10:41:51.158Z,26.77
2023-03-02T10:44:23.800Z,28.08
2023-03-02T10:46:53.802Z,25.37
2023-03-02T10:49:28.908Z,29.33
2023-03-02T10:52:01.895Z,25.00
2023-03-02T10:54:32.439Z,23.13
2023-03-02T10:57:02.428Z,23.85
2023-03-02T10:59:43.229Z,23.35
2023-03-02T11:02:18.432Z,22.80
2023-03-02T11:04:47.711Z,26.17
2023-03-02T11:07:19.548Z,23.55
2023-03-02T11:10:01.849Z,26.85
2023-03-02T11:12:31.679Z,29.90
2023-03-02T11:15:15.827Z,20.45
2023-03-02T11:17:46.405Z,24.92
2023-03-02T11:20:21.238Z,22.60
2023-03-02T11:22:58.247Z,23.98
2023-03-02T11:25:31.647Z,22.95
2023-03-02T11:28:05.608Z,28.80
2023-03-02T11:30:37.420Z,24.60
2023-03-02T11:33:13.865Z,28.00
2023-03-02T11:35:49.495Z,27.75
2023-03-02T11:38:20.861Z,17.17
2023-03-02T11:40:52.692Z,23.95
2023-03-02T11:43:20.799Z,22.83
2023-03-02T11:45:52.875Z,31.20
2023-03-02T11:48:25.401Z,23.85
2023-03-02T11:50:58.436Z,28.07
2023-03-02T11:53:31.643Z,26.88
2023-03-02T11:55:59.551Z,26.77
2023-03-02T11:58:30.704Z,26.13
2023-03-02T12:00:58.829Z,26.95
2023-03-02T12:03:40.552Z,19.35
2023-03-02T12:06:28.798Z,21.17
2023-03-02T12:09:10.157Z,22.35
2023-03-02T12:11:40.396Z,22.35
2023-03-02T12:14:31.075Z,21.27
2023-03-02T12:17:08.398Z,20.27
2023-03-02T12:19:45.261Z,29.48
2023-03-02T12:22:15.349Z,21.10
2023-03-02T12:24:45.562Z,24.08
2023-03-02T12:27:26.478Z,32.60
2023-03-02T12:30:09.356Z,20.55
2023-03-02T12:32:37.325Z,21.77
2023-03-02T12:35:12.103Z,19.38
2023-03-02T12:37:47.265Z,19.27
2023-03-02T12:40:34.480Z,23.85
2023-03-02T12:43:30.772Z,20.35
2023-03-02T12:46:25.556Z,20.60
2023-03-02T12:49:00.586Z,24.05
2023-03-02T12:51:31.092Z,22.75
2023-03-02T12:54:13.452Z,23.35
2023-03-02T12:56:41.282Z,20.40
2023-03-02T12:59:20.532Z,22.45
2023-03-02T13:01:48.262Z,21.95
2023-03-02T13:04:24.512Z,15.40
2023-03-02T13:06:52.852Z,19.02
2023-03-02T13:09:23.839Z,24.27
2023-03-02T13:11:54.746Z,21.73
2023-03-02T13:14:26.175Z,23.35
2023-03-02T13:16:59.299Z,23.98
2023-03-02T13:19:28.270Z,16.58
2023-03-02T13:21:56.293Z,21.08
2023-03-02T13:24:33.668Z,21.88
2023-03-02T13:27:06.864Z,16.98
2023-03-02T13:29:35.441Z,21.40
2023-03-02T13:32:19.910Z,20.15
2023-03-02T13:34:50.454Z,22.00
2023-03-02T13:37:22.705Z,31.17
2023-03-02T13:39:59.773Z,19.77
2023-03-02T13:42:30.616Z,29.13
2023-03-02T13:44:58.360Z,21.77
2023-03-02T13:47:26.252Z,19.73
2023-03-02T13:49:54.045Z,20.58
2023-03-02T13:52:28.309Z,23.25
2023-03-02T13:54:56.358Z,26.83
2023-03-02T13:57:32.573Z,22.15
2023-03-02T14:00:01.064Z,22.15
2023-03-02T14:02:30.540Z,20.67
2023-03-02T14:04:58.839Z,22.17
2023-03-02T14:07:26.651Z,27.65
2023-03-02T14:09:56.556Z,21.08
2023-03-02T14:12:31.445Z,20.95
2023-03-02T14:15:02.546Z,19.60
2023-03-02T14:17:30.617Z,23.95
2023-03-02T14:19:59.060Z,23.83
2023-03-02T14:22:29.544Z,21.02
2023-03-02T14:24:57.388Z,25.80
2023-03-02T14:27:30.395Z,23.23
2023-03-02T14:29:58.278Z,24.48
2023-03-02T14:32:26.001Z,18.90
2023-03-02T14:34:53.777Z,24.73
2023-03-02T14:37:25.896Z,19.45
2023-03-02T14:39:55.558Z,19.85
2023-03-02T14:42:24.241Z,25.83
2023-03-02T14:44:53.643Z,20.17
2023-03-02T14:47:22.015Z,17.58
2023-03-02T14:49:49.855Z,24.30
2023-03-02T14:52:23.554Z,19.52
2023-03-02T14:54:53.942Z,28.23
2023-03-02T14:57:25.441Z,23.77
2023-03-02T14:59:56.122Z,25.65
2023-03-02T15:02:26.835Z,22.95
2023-03-02T15:04:56.926Z,25.90
2023-03-02T15:07:26.834Z,27.02
2023-03-02T15:09:55.189Z,27.98
2023-03-02T15:12:22.971Z,22.65
2023-03-02T15:14:50.709Z,24.65
2023-03-02T15:17:20.614Z,24.90
2023-03-02T15:19:48.938Z,27.83
2023-03-02T15:22:17.070Z,27.30
2023-03-02T15:24:44.836Z,29.48
2023-03-02T15:27:12.632Z,28.15
2023-03-02T15:29:44.337Z,25.77
2023-03-02T15:32:12.453Z,28.52
2023-03-02T15:34:41.881Z,29.08
2023-03-02T15:37:11.010Z,26.48
2023-03-02T15:39:38.763Z,25.13
2023-03-02T15:42:07.035Z,30.27
2023-03-02T15:44:34.775Z,20.65
2023-03-02T15:47:03.340Z,25.88
2023-03-02T15:49:32.890Z,23.67
2023-03-02T15:52:02.207Z,24.85
2023-03-02T15:54:30.287Z,25.88
2023-03-02T15:56:58.160Z,25.67
2023-03-02T15:59:28.261Z,20.98
2023-03-02T16:01:59.214Z,28.20
2023-03-02T16:04:27.673Z,30.02
2023-03-02T16:06:56.338Z,28.42
2023-03-02T16:09:28.756Z,22.48
2023-03-02T16:11:57.023Z,26.00
2023-03-02T16:14:24.898Z,34.90
2023-03-02T16:16:52.737Z,28.25
2023-03-02T16:19:20.758Z,26.77
2023-03-02T16:21:48.654Z,27.10
2023-03-02T16:24:17.269Z,23.92
2023-03-02T16:26:46.692Z,35.85
2023-03-02T16:29:15.294Z,24.40
2023-03-02T16:31:46.224Z,27.73
2023-03-02T16:34:14.377Z,38.15
2023-03-02T16:36:42.708Z,28.92
2023-03-02T16:39:11.963Z,24.75
2023-03-02T16:41:40.458Z,26.30
2023-03-02T16:44:10.163Z,29.00
2023-03-02T16:46:39.978Z,29.48
2023-03-02T16:49:11.235Z,22.73
2023-03-02T16:51:39.040Z,27.95
2023-03-02T16:54:06.970Z,27.00
2023-03-02T16:56:34.754Z,31.23
2023-03-02T16:59:02.466Z,28.25
2023-03-02T17:01:31.670Z,25.48
2023-03-02T17:03:59.502Z,34.00
2023-03-02T17:06:27.263Z,31.92
2023-03-02T17:08:54.971Z,24.25
2023-03-02T17:11:22.826Z,23.52
2023-03-02T17:13:50.702Z,22.02
2023-03-02T17:16:19.197Z,26.45
2023-03-02T17:18:48.294Z,28.85
2023-03-02T17:21:18.008Z,28.40
2023-03-02T17:23:48.074Z,30.30
2023-03-02T17:26:16.243Z,26.83
2023-03-02T17:28:44.028Z,31.13
2023-03-02T17:31:12.091Z,24.58
2023-03-02T17:33:40.290Z,31.05
2023-03-02T17:36:12.179Z,33.42
2023-03-02T17:38:40.541Z,18.27
2023-03-02T17:41:09.921Z,23.73
2023-03-02T17:43:39.316Z,26.25
2023-03-02T17:46:12.762Z,17.38
2023-03-02T17:51:11.764Z,31.20
2023-03-02T17:53:39.882Z,24.83
2023-03-02T17:56:07.892Z,25.65
2023-03-02T17:58:44.556Z,34.10
2023-03-02T18:01:15.629Z,22.52
2023-03-02T18:03:44.943Z,23.85
2023-03-02T18:06:17.819Z,21.13
2023-03-02T18:08:45.899Z,24.00
2023-03-02T18:11:13.708Z,20.08
2023-03-02T18:13:41.403Z,26.88
2023-03-02T18:16:09.583Z,23.05
2023-03-02T18:18:37.598Z,21.23
2023-03-02T18:21:05.860Z,19.13
2023-03-02T18:23:34.964Z,16.83
2023-03-02T18:26:02.731Z,21.85
2023-03-02T18:28:30.534Z,15.30
2023-03-02T18:30:58.467Z,21.55
2023-03-02T18:33:26.187Z,16.33
2023-03-02T18:35:53.965Z,16.65
2023-03-02T18:38:21.716Z,16.67
2023-03-02T18:40:50.793Z,20.42
2023-03-02T18:43:18.540Z,18.42
2023-03-02T18:45:46.263Z,16.88
2023-03-02T18:48:14.069Z,20.08
2023-03-02T18:50:42.638Z,16.80
2023-03-02T18:53:12.792Z,19.45
2023-03-02T18:55:41.327Z,16.40
2023-03-02T18:58:18.045Z,16.48
2023-03-02T19:00:46.755Z,21.10
2023-03-02T19:03:16.066Z,36.15
2023-03-02T19:05:44.637Z,14.90
2023-03-02T19:08:13.249Z,25.58
2023-03-02T19:10:42.387Z,27.05
2023-03-02T19:13:11.790Z,20.40
2023-03-02T19:15:40.592Z,20.50
2023-03-02T19:18:08.496Z,21.70
2023-03-02T19:20:36.902Z,25.95
2023-03-02T19:23:04.696Z,23.83
2023-03-02T19:25:32.502Z,21.15
2023-03-02T19:28:02.259Z,21.67
2023-03-02T19:30:31.820Z,22.65
2023-03-02T19:32:59.541Z,20.80
2023-03-02T19:35:28.809Z,22.15
2023-03-02T19:37:57.187Z,25.83
2023-03-02T19:40:28.366Z,24.08
2023-03-02T19:42:57.344Z,27.55
2023-03-02T19:45:27.231Z,28.00
2023-03-02T19:47:57.778Z,30.98
2023-03-02T19:50:26.707Z,22.35
2023-03-02T19:52:54.844Z,21.02
2023-03-02T19:55:24.211Z,19.98
2023-03-02T19:57:59.442Z,34.72
2023-03-02T20:00:29.988Z,23.48
2023-03-02T20:02:59.237Z,29.42
2023-03-02T20:05:28.126Z,23.65
2023-03-02T20:07:56.232Z,24.40
2023-03-02T20:10:30.253Z,32.83
2023-03-02T20:12:59.339Z,24.77
2023-03-02T20:15:27.627Z,23.00
2023-03-02T20:17:55.432Z,26.27
2023-03-02T20:20:26.937Z,34.47
2023-03-02T20:22:54.917Z,26.30
2023-03-02T20:25:22.984Z,26.95
2023-03-02T20:27:51.839Z,27.48
2023-03-02T20:30:23.491Z,26.38
2023-03-02T20:32:51.215Z,28.88
2023-03-02T20:35:19.106Z,22.25
2023-03-02T20:37:49.100Z,26.48
2023-03-02T20:40:18.925Z,28.65
2023-03-02T20:42:46.656Z,30.73
2023-03-02T20:45:15.078Z,34.20
2023-03-02T20:47:44.142Z,28.50
2023-03-02T20:50:16.143Z,26.15
2023-03-02T20:52:43.940Z,30.85
2023-03-02T20:55:13.502Z,24.05
2023-03-02T20:57:41.355Z,30.23
2023-03-02T21:00:22.863Z,30.50
2023-03-02T21:02:50.884Z,29.70
2023-03-02T21:05:19.901Z,26.38
2023-03-02T21:07:48.046Z,22.17
2023-03-02T21:10:20.583Z,31.42
2023-03-02T21:12:49.042Z,29.73
2023-03-02T21:15:19.074Z,23.08
2023-03-02T21:17:47.237Z,27.85
2023-03-02T21:20:18.346Z,31.58
2023-03-02T21:22:46.625Z,27.60
2023-03-02T21:25:17.040Z,23.33
2023-03-02T21:27:46.615Z,22.60
2023-03-02T21:30:19.972Z,27.67
2023-03-02T21:32:48.101Z,28.00
2023-03-02T21:35:18.012Z,26.98
2023-03-02T21:37:45.785Z,27.60
2023-03-02T21:40:17.178Z,33.25
2023-03-02T21:42:46.328Z,26.13
2023-03-02T21:45:14.770Z,23.75
2023-03-02T21:47:43.668Z,26.85
2023-03-02T21:50:15.738Z,34.88
2023-03-02T21:52:43.492Z,27.33
2023-03-02T21:55:13.037Z,24.95
2023-03-02T21:57:40.773Z,26.20
2023-03-02T22:00:22.094Z,37.83
2023-03-02T22:02:50.094Z,27.13
2023-03-02T22:05:19.094Z,28.35
2023-03-02T22:07:47.718Z,28.40
2023-03-02T22:10:27.717Z,25.08
2023-03-02T22:12:58.551Z,25.45
2023-03-02T22:15:28.145Z,27.27
2023-03-02T22:17:56.602Z,27.45
2023-03-02T22:20:24.556Z,32.42
2023-03-02T22:22:54.563Z,27.17
2023-03-02T22:25:22.456Z,22.73
2023-03-02T22:27:50.247Z,23.92
2023-03-02T22:30:21.867Z,24.92
2023-03-02T22:32:51.247Z,21.25
2023-03-02T22:35:23.383Z,23.73
2023-03-02T22:37:52.835Z,22.80
2023-03-02T22:40:30.342Z,34.13
2023-03-02T22:43:12.045Z,24.73
2023-03-02T22:45:41.234Z,25.67
2023-03-02T22:48:16.132Z,24.60
2023-03-02T22:50:45.486Z,24.83
2023-03-02T22:53:29.004Z,32.20
2023-03-02T22:55:59.263Z,42.50
2023-03-02T22:58:43.399Z,34.58
2023-03-02T23:01:20.892Z,26.27
2023-03-02T23:03:52.107Z,27.05
2023-03-02T23:06:31.792Z,26.88
2023-03-02T23:09:01.802Z,27.55
2023-03-02T23:11:32.448Z,31.45
2023-03-02T23:14:02.827Z,29.48
2023-03-02T23:16:36.863Z,19.92
2023-03-02T23:19:06.135Z,27.02
2023-03-02T23:21:38.554Z,18.35
2023-03-02T23:24:07.849Z,21.23
2023-03-02T23:26:35.649Z,20.88
2023-03-02T23:29:03.448Z,23.67
2023-03-02T23:31:31.382Z,25.60
2023-03-02T23:33:59.175Z,21.10
2023-03-02T23:36:28.273Z,27.98
2023-03-02T23:38:56.056Z,28.35
2023-03-02T23:41:23.898Z,25.08
2023-03-02T23:43:51.658Z,23.48
2023-03-02T23:46:19.473Z,22.25
2023-03-02T23:48:47.814Z,26.00
2023-03-02T23:51:15.985Z,23.55
2023-03-02T23:53:45.777Z,20.00
2023-03-02T23:56:13.582Z,20.85
2023-03-02T23:58:41.391Z,20.95
